Time;durP1;ratioP1;P1;durP2;ratioP2;P2;SDS_P1;SDS_P2;PMS_P1;PMS_P2;Temp;Humidity;BMP_temperature;BMP_pressure;BME280_temperature;BME280_humidity;BME280_pressure;Samples;Min_cycle;Max_cycle;Signal;HPM_P1;HPM_P2
2023/09/18 00:02:08;;;;;;;8.07;6.60;;;19.40;99.90;;;;;;4972729;28;20031;-83
2023/09/18 00:04:34;;;;;;;11.02;6.53;;;19.30;99.90;;;;;;4938764;28;20051;-83
2023/09/18 00:06:59;;;;;;;7.95;6.50;;;19.30;99.90;;;;;;4960802;28;20041;-84
2023/09/18 00:09:25;;;;;;;11.02;7.43;;;19.30;99.90;;;;;;4959761;28;20052;-83
2023/09/18 00:11:52;;;;;;;9.52;6.07;;;19.30;99.90;;;;;;4979997;28;20561;-83
2023/09/18 00:14:18;;;;;;;11.57;6.75;;;19.30;99.90;;;;;;4976046;28;20035;-83
2023/09/18 00:16:43;;;;;;;9.88;6.72;;;19.30;99.90;;;;;;4972289;28;20113;-83
2023/09/18 00:19:10;;;;;;;7.35;6.32;;;19.30;99.90;;;;;;4977548;28;20474;-83
2023/09/18 00:21:35;;;;;;;7.50;6.68;;;19.30;99.90;;;;;;4975230;28;20085;-83
2023/09/18 00:24:01;;;;;;;12.75;6.88;;;19.30;99.90;;;;;;4978226;28;20043;-83
2023/09/18 00:26:27;;;;;;;10.43;6.43;;;19.30;99.90;;;;;;4959653;28;20034;-83
2023/09/18 00:28:52;;;;;;;10.27;6.18;;;19.20;99.90;;;;;;4970681;28;20454;-84
2023/09/18 00:31:19;;;;;;;9.07;6.28;;;19.20;99.90;;;;;;4970469;28;20034;-83
2023/09/18 00:33:50;;;;;;;10.55;6.72;;;19.20;99.90;;;;;;4968254;28;20054;-83
2023/09/18 00:36:16;;;;;;;11.15;6.55;;;19.20;99.90;;;;;;4946865;28;20113;-84
2023/09/18 00:38:42;;;;;;;8.20;6.40;;;19.20;99.90;;;;;;4950658;28;20032;-83
2023/09/18 00:41:07;;;;;;;9.82;6.80;;;19.10;99.90;;;;;;4972443;28;20391;-84
2023/09/18 00:43:33;;;;;;;9.25;6.40;;;19.10;99.90;;;;;;4956651;28;20026;-83
2023/09/18 00:45:59;;;;;;;13.15;6.95;;;19.10;99.90;;;;;;4977195;28;20118;-83
2023/09/18 00:48:25;;;;;;;7.28;6.18;;;19.00;99.90;;;;;;4973006;28;20042;-82
2023/09/18 00:50:53;;;;;;;11.88;6.63;;;19.00;99.90;;;;;;4977730;28;20053;-82
2023/09/18 00:53:20;;;;;;;9.40;6.50;;;19.00;99.90;;;;;;4957673;28;20043;-82
2023/09/18 00:55:46;;;;;;;12.55;6.95;;;19.00;99.90;;;;;;4976541;28;20030;-82
2023/09/18 00:58:12;;;;;;;11.98;7.00;;;19.00;99.90;;;;;;4976715;28;20089;-82
2023/09/18 01:00:38;;;;;;;10.52;5.90;;;19.00;99.90;;;;;;4975112;28;20121;-82
2023/09/18 01:03:04;;;;;;;10.18;5.18;;;19.00;99.90;;;;;;4977364;28;20165;-82
2023/09/18 01:05:33;;;;;;;5.70;4.82;;;19.10;99.90;;;;;;4977015;28;20042;-82
2023/09/18 01:07:59;;;;;;;9.57;5.05;;;19.10;99.90;;;;;;4981010;28;20065;-83
2023/09/18 01:10:24;;;;;;;10.57;5.18;;;19.20;99.90;;;;;;4976793;28;20327;-82
2023/09/18 01:12:56;;;;;;;7.25;5.88;;;19.20;99.90;;;;;;4973391;28;20671;-82
2023/09/18 01:15:32;;;;;;;11.80;6.75;;;19.10;99.90;;;;;;4976232;28;20407;-82
2023/09/18 01:17:57;;;;;;;;;;;19.00;99.90;;;;;;4976503;28;20102;-82
2023/09/18 01:20:23;;;;;;;8.33;5.37;;;19.00;99.90;;;;;;4970258;28;20468;-82
2023/09/18 01:22:49;;;;;;;7.18;5.65;;;19.00;99.90;;;;;;4974391;28;20266;-82
2023/09/18 01:25:15;;;;;;;6.88;4.97;;;19.10;99.90;;;;;;4960907;28;20106;-82
2023/09/18 01:27:41;;;;;;;11.40;6.38;;;19.10;99.90;;;;;;4975136;28;20567;-82
2023/09/18 01:30:07;;;;;;;8.90;4.32;;;19.10;99.90;;;;;;4973253;28;20023;-82
2023/09/18 01:32:33;;;;;;;8.85;6.50;;;19.10;99.90;;;;;;4975200;28;20446;-82
2023/09/18 01:35:00;;;;;;;8.10;6.03;;;19.00;99.90;;;;;;4974775;28;20031;-82
2023/09/18 01:37:26;;;;;;;12.07;5.95;;;18.90;99.90;;;;;;4976598;28;20400;-82
2023/09/18 01:39:53;;;;;;;8.80;6.97;;;18.90;99.90;;;;;;4978429;28;20031;-82
2023/09/18 01:42:18;;;;;;;11.65;7.70;;;18.80;99.90;;;;;;4961268;28;20038;-82
2023/09/18 01:44:44;;;;;;;15.43;6.72;;;18.80;99.90;;;;;;4977301;28;20030;-82
2023/09/18 01:47:14;;;;;;;12.85;7.63;;;18.80;99.90;;;;;;4960636;28;20169;-82
2023/09/18 01:49:40;;;;;;;13.15;6.95;;;18.70;99.90;;;;;;4971544;28;20146;-82
2023/09/18 01:52:06;;;;;;;12.00;6.82;;;18.70;99.90;;;;;;4974405;28;20031;-82
2023/09/18 01:54:32;;;;;;;15.73;6.85;;;18.70;99.90;;;;;;4990460;28;20042;-82
2023/09/18 01:56:58;;;;;;;10.77;6.80;;;18.70;99.90;;;;;;4973675;28;20438;-82
2023/09/18 01:59:23;;;;;;;10.82;6.47;;;18.70;99.90;;;;;;4972190;28;20054;-82
2023/09/18 02:01:50;;;;;;;12.77;6.47;;;18.70;99.90;;;;;;4970546;28;20892;-82
2023/09/18 02:04:17;;;;;;;13.35;6.85;;;18.70;99.90;;;;;;4963874;28;20138;-82
2023/09/18 02:06:43;;;;;;;10.70;7.22;;;18.50;99.90;;;;;;4972957;28;20110;-82
2023/09/18 02:09:09;;;;;;;11.63;6.75;;;18.60;99.90;;;;;;4969970;28;20121;-81
2023/09/18 02:11:38;;;;;;;12.20;6.43;;;18.50;99.90;;;;;;4972669;28;20031;-82
2023/09/18 02:14:05;;;;;;;11.18;6.55;;;18.50;99.90;;;;;;4968249;28;20137;-81
2023/09/18 02:16:32;;;;;;;8.32;6.72;;;18.60;99.90;;;;;;4985911;28;20510;-82
2023/09/18 02:18:58;;;;;;;9.73;5.78;;;18.70;99.90;;;;;;4975049;28;20707;-81
2023/09/18 02:21:23;;;;;;;9.70;5.38;;;18.70;99.90;;;;;;4956723;28;20036;-81
2023/09/18 02:23:51;;;;;;;6.13;4.95;;;18.70;99.90;;;;;;4971849;28;20114;-81
2023/09/18 02:26:17;;;;;;;16.55;5.70;;;18.80;99.90;;;;;;4951779;28;20038;-81
2023/09/18 02:28:42;;;;;;;9.23;5.18;;;18.90;99.90;;;;;;4956873;28;20041;-81
2023/09/18 02:31:08;;;;;;;10.50;5.10;;;18.90;99.90;;;;;;4971649;28;20042;-81
2023/09/18 02:33:34;;;;;;;6.70;5.03;;;19.10;99.90;;;;;;4970346;28;20077;-82
2023/09/18 02:35:59;;;;;;;8.10;5.15;;;19.10;99.90;;;;;;4970671;28;20049;-82
2023/09/18 02:38:25;;;;;;;10.98;4.97;;;19.20;99.90;;;;;;4973720;28;20109;-82
2023/09/18 02:40:53;;;;;;;8.30;4.63;;;19.20;99.90;;;;;;4934346;28;20031;-82
2023/09/18 02:43:18;;;;;;;13.07;5.13;;;19.20;99.90;;;;;;4952660;28;20045;-82
2023/09/18 02:45:45;;;;;;;5.28;3.53;;;19.30;99.90;;;;;;4954178;28;20034;-81
2023/09/18 02:48:11;;;;;;;6.45;4.53;;;19.30;99.90;;;;;;4970765;28;20041;-82
2023/09/18 02:50:37;;;;;;;9.55;4.93;;;19.30;99.90;;;;;;4969134;28;20408;-82
2023/09/18 02:53:03;;;;;;;9.77;4.90;;;19.40;99.90;;;;;;4949780;28;20141;-81
2023/09/18 02:55:29;;;;;;;8.45;4.68;;;19.40;99.90;;;;;;4974154;28;20030;-81
2023/09/18 02:57:54;;;;;;;11.20;3.83;;;19.40;99.90;;;;;;4971663;28;20031;-81
2023/09/18 03:00:21;;;;;;;6.43;4.35;;;19.50;99.90;;;;;;4952900;28;20034;-82
2023/09/18 03:02:46;;;;;;;8.55;4.00;;;19.50;99.90;;;;;;4975480;28;20035;-82
2023/09/18 03:05:12;;;;;;;10.32;3.97;;;19.50;99.90;;;;;;4971454;28;20038;-82
2023/09/18 03:07:37;;;;;;;5.30;3.28;;;19.50;99.90;;;;;;4973172;28;20027;-81
2023/09/18 03:10:04;;;;;;;9.68;4.10;;;19.60;99.90;;;;;;4968105;28;20041;-81
2023/09/18 03:12:30;;;;;;;7.93;4.22;;;19.60;99.90;;;;;;4971215;28;20045;-82
2023/09/18 03:14:56;;;;;;;12.20;5.28;;;19.60;99.90;;;;;;4975287;28;20034;-82
2023/09/18 03:17:21;;;;;;;5.32;3.58;;;19.60;99.90;;;;;;4937094;28;20618;-81
2023/09/18 03:19:50;;;;;;;5.72;3.95;;;19.70;99.90;;;;;;4970601;28;20483;-81
2023/09/18 03:22:15;;;;;;;10.32;3.95;;;19.70;99.90;;;;;;4972635;28;20026;-81
2023/09/18 03:24:41;;;;;;;6.45;3.63;;;19.70;99.90;;;;;;4971745;28;20038;-81
2023/09/18 03:27:06;;;;;;;9.15;3.95;;;19.80;99.90;;;;;;4970467;28;20492;-81
2023/09/18 03:29:32;;;;;;;10.60;4.47;;;19.90;99.90;;;;;;4972147;28;20035;-82
2023/09/18 03:31:59;;;;;;;6.43;4.07;;;19.90;99.90;;;;;;4956345;28;20322;-82
2023/09/18 03:34:27;;;;;;;6.13;3.40;;;19.90;99.90;;;;;;4954874;28;20038;-82
2023/09/18 03:36:53;;;;;;;3.72;3.15;;;19.90;99.90;;;;;;4957908;28;20104;-82
2023/09/18 03:39:19;;;;;;;7.72;3.83;;;20.00;99.90;;;;;;4952367;28;20034;-82
2023/09/18 03:41:45;;;;;;;8.18;4.07;;;20.00;99.90;;;;;;4971011;28;20052;-81
2023/09/18 03:44:11;;;;;;;10.77;3.53;;;20.10;99.90;;;;;;4971098;28;20479;-82
2023/09/18 03:46:36;;;;;;;10.20;3.85;;;20.10;99.90;;;;;;4970397;28;20042;-82
2023/09/18 03:49:03;;;;;;;9.93;4.10;;;20.10;99.90;;;;;;4952398;28;20027;-81
2023/09/18 03:51:29;;;;;;;7.88;3.55;;;20.10;99.90;;;;;;4970414;28;20535;-81
2023/09/18 03:53:55;;;;;;;10.30;3.22;;;20.20;99.90;;;;;;4973313;28;20579;-81
2023/09/18 03:56:21;;;;;;;13.57;4.63;;;20.20;99.90;;;;;;4967499;28;20035;-81
2023/09/18 03:58:49;;;;;;;8.60;4.20;;;20.30;99.90;;;;;;4972082;28;20085;-82
2023/09/18 04:01:15;;;;;;;10.77;3.90;;;20.30;99.90;;;;;;4968158;28;20055;-82
2023/09/18 04:03:41;;;;;;;10.32;4.38;;;20.20;99.90;;;;;;4969665;28;20034;-82
2023/09/18 04:06:07;;;;;;;9.35;4.90;;;20.20;99.90;;;;;;4969441;28;20027;-82
2023/09/18 04:08:32;;;;;;;7.18;3.58;;;20.20;99.90;;;;;;4966889;28;20134;-82
2023/09/18 04:10:58;;;;;;;6.55;4.45;;;20.20;99.90;;;;;;4948499;28;20145;-82
2023/09/18 04:13:24;;;;;;;11.57;4.85;;;20.20;99.90;;;;;;4947926;28;20042;-82
2023/09/18 04:15:51;;;;;;;8.68;3.95;;;20.20;99.90;;;;;;4966896;28;20039;-81
2023/09/18 04:18:17;;;;;;;7.82;4.30;;;20.10;99.90;;;;;;4969746;28;20177;-82
2023/09/18 04:20:42;;;;;;;7.35;4.10;;;20.20;99.90;;;;;;4971506;28;20581;-82
2023/09/18 04:23:19;;;;;;;13.48;3.55;;;20.20;99.90;;;;;;4969450;28;20154;-82
2023/09/18 04:25:45;;;;;;;9.52;3.95;;;20.10;99.90;;;;;;4950208;28;20031;-82
2023/09/18 04:28:12;;;;;;;5.70;3.25;;;20.10;99.90;;;;;;4967877;28;20062;-82
2023/09/18 04:30:38;;;;;;;12.52;4.20;;;20.00;99.90;;;;;;4965192;28;20133;-83
2023/09/18 04:33:03;;;;;;;8.25;3.42;;;20.10;99.90;;;;;;4951133;28;20162;-82
2023/09/18 04:35:31;;;;;;;11.18;3.72;;;20.10;99.90;;;;;;4950111;28;20546;-82
2023/09/18 04:37:56;;;;;;;8.02;3.65;;;20.00;99.90;;;;;;4972177;28;20058;-81
2023/09/18 04:40:23;;;;;;;10.10;3.95;;;20.10;99.90;;;;;;4970632;28;20118;-83
2023/09/18 04:42:49;;;;;;;7.68;3.97;;;20.10;99.90;;;;;;4966312;28;20109;-82
2023/09/18 04:45:15;;;;;;;9.45;3.67;;;20.10;99.90;;;;;;4971142;28;20582;-82
2023/09/18 04:47:41;;;;;;;8.02;4.10;;;20.10;99.90;;;;;;4956853;28;20089;-83
2023/09/18 04:50:09;;;;;;;11.82;4.15;;;20.10;99.90;;;;;;4974158;28;20023;-83
2023/09/18 04:52:35;;;;;;;11.30;3.83;;;20.20;99.90;;;;;;4973457;28;20077;-83
2023/09/18 04:55:01;;;;;;;12.85;3.83;;;20.20;99.90;;;;;;4952099;28;20027;-83
2023/09/18 04:57:27;;;;;;;10.65;4.22;;;20.20;99.90;;;;;;4987258;28;20554;-83
2023/09/18 04:59:52;;;;;;;11.57;4.00;;;20.20;99.90;;;;;;4970806;28;21434;-83
2023/09/18 05:02:18;;;;;;;12.18;4.35;;;20.20;99.90;;;;;;4981745;28;20089;-83
2023/09/18 05:04:43;;;;;;;7.93;4.00;;;20.20;99.90;;;;;;4972841;28;20022;-83
2023/09/18 05:07:09;;;;;;;10.20;3.72;;;20.20;99.90;;;;;;4976827;28;20037;-83
2023/09/18 05:09:34;;;;;;;9.27;4.60;;;20.20;99.90;;;;;;4953917;28;20028;-82
2023/09/18 05:12:00;;;;;;;5.22;3.63;;;20.20;99.90;;;;;;4969374;28;20041;-83
2023/09/18 05:14:26;;;;;;;8.98;3.90;;;20.20;99.90;;;;;;4965390;28;20054;-83
2023/09/18 05:16:52;;;;;;;11.52;4.43;;;20.30;99.90;;;;;;4955018;28;20034;-82
2023/09/18 05:19:17;;;;;;;10.18;4.32;;;20.20;99.90;;;;;;4972460;28;20169;-82
2023/09/18 05:21:43;;;;;;;10.38;4.03;;;20.10;99.90;;;;;;4955448;28;20035;-83
2023/09/18 05:24:09;;;;;;;6.90;3.78;;;20.30;99.90;;;;;;4971043;28;20038;-83
2023/09/18 05:26:34;;;;;;;11.82;4.40;;;20.30;99.90;;;;;;4953033;28;20085;-82
2023/09/18 05:29:00;;;;;;;10.63;3.70;;;20.30;99.90;;;;;;4972860;28;20070;-82
2023/09/18 05:31:26;;;;;;;9.73;3.72;;;20.30;99.90;;;;;;4983217;28;20042;-83
2023/09/18 05:33:52;;;;;;;10.82;4.43;;;20.30;99.90;;;;;;4971554;28;20573;-82
2023/09/18 05:36:20;;;;;;;10.88;3.60;;;20.30;99.90;;;;;;4972023;28;20039;-82
2023/09/18 05:38:52;;;;;;;13.23;4.50;;;20.50;99.90;;;;;;4974022;28;20395;-82
2023/09/18 05:41:17;;;;;;;8.07;3.70;;;20.40;99.90;;;;;;4961108;28;20069;-82
2023/09/18 05:43:43;;;;;;;9.02;4.53;;;20.30;99.90;;;;;;4977194;28;20034;-82
2023/09/18 05:46:08;;;;;;;9.48;4.28;;;20.30;99.90;;;;;;4957340;28;20113;-83
2023/09/18 05:48:34;;;;;;;8.77;3.22;;;20.40;99.90;;;;;;4975367;28;20034;-82
2023/09/18 05:51:00;;;;;;;7.45;3.17;;;20.40;99.90;;;;;;4971881;28;20150;-82
2023/09/18 05:53:25;;;;;;;11.48;3.67;;;20.30;99.90;;;;;;4971929;28;20478;-83
2023/09/18 05:55:51;;;;;;;10.07;3.45;;;20.30;99.90;;;;;;4977746;28;20734;-82
2023/09/18 05:58:19;;;;;;;9.23;3.88;;;20.30;99.90;;;;;;4972942;28;20053;-83
2023/09/18 06:00:45;;;;;;;12.82;3.72;;;20.40;99.90;;;;;;4963677;28;20051;-83
2023/09/18 06:03:12;;;;;;;8.75;3.13;;;20.40;99.90;;;;;;4980900;28;20030;-83
2023/09/18 06:05:37;;;;;;;6.03;2.70;;;20.30;99.90;;;;;;4964204;28;20042;-83
2023/09/18 06:08:03;;;;;;;8.60;3.60;;;20.40;99.90;;;;;;4979657;28;20034;-82
2023/09/18 06:10:32;;;;;;;7.75;3.33;;;20.40;99.90;;;;;;4981407;28;20035;-82
2023/09/18 06:12:58;;;;;;;10.90;2.65;;;20.50;99.90;;;;;;4956805;28;20518;-83
2023/09/18 06:15:24;;;;;;;5.72;3.03;;;20.40;99.90;;;;;;4966123;28;20030;-83
2023/09/18 06:17:49;;;;;;;10.07;3.50;;;20.50;99.90;;;;;;4979816;28;20172;-83
2023/09/18 06:20:15;;;;;;;9.40;2.72;;;20.50;99.90;;;;;;4961725;28;20066;-82
2023/09/18 06:22:41;;;;;;;7.63;2.85;;;20.40;99.90;;;;;;4958502;28;20058;-81
2023/09/18 06:25:07;;;;;;;8.63;3.05;;;20.50;99.90;;;;;;4977974;28;20038;-82
2023/09/18 06:27:36;;;;;;;7.00;3.03;;;20.50;99.90;;;;;;4970110;28;20040;-81
2023/09/18 06:30:03;;;;;;;6.85;3.15;;;20.60;99.90;;;;;;4968336;28;20116;-81
2023/09/18 06:32:29;;;;;;;5.88;2.33;;;20.50;99.90;;;;;;4974002;28;20411;-81
2023/09/18 06:34:54;;;;;;;6.45;2.90;;;20.50;99.90;;;;;;4974015;28;20038;-80
2023/09/18 06:37:20;;;;;;;7.05;3.28;;;20.60;99.90;;;;;;4971746;28;20587;-81
2023/09/18 06:39:45;;;;;;;8.90;3.00;;;20.60;99.90;;;;;;4954702;28;20113;-80
2023/09/18 06:42:11;;;;;;;6.68;2.80;;;20.70;99.90;;;;;;4973027;28;20034;-80
2023/09/18 06:44:37;;;;;;;7.80;3.00;;;20.70;99.90;;;;;;4947392;28;20058;-80
2023/09/18 06:47:03;;;;;;;11.35;3.65;;;20.70;99.90;;;;;;4968110;28;20031;-79
2023/09/18 06:49:30;;;;;;;9.45;3.10;;;20.70;99.90;;;;;;4969627;28;20089;-80
2023/09/18 06:51:56;;;;;;;5.45;2.45;;;20.80;99.90;;;;;;4972756;28;20533;-80
2023/09/18 06:54:21;;;;;;;8.10;2.95;;;20.80;99.90;;;;;;4971150;28;20038;-81
2023/09/18 06:56:47;;;;;;;8.20;2.80;;;20.80;99.90;;;;;;4958552;28;20054;-81
2023/09/18 06:59:13;;;;;;;6.88;2.15;;;20.90;99.90;;;;;;4973189;28;20117;-80
2023/09/18 07:01:40;;;;;;;4.80;1.75;;;20.90;99.90;;;;;;4955521;28;20056;-81
2023/09/18 07:04:06;;;;;;;4.60;2.00;;;20.90;99.90;;;;;;4977470;28;20035;-82
2023/09/18 07:06:33;;;;;;;3.20;2.10;;;20.90;99.90;;;;;;4978174;28;20037;-81
2023/09/18 07:08:59;;;;;;;12.05;2.63;;;21.00;99.90;;;;;;4967843;28;20066;-81
2023/09/18 07:11:24;;;;;;;7.78;1.98;;;21.00;99.90;;;;;;4979016;28;20038;-82
2023/09/18 07:13:50;;;;;;;7.53;2.00;;;21.00;99.90;;;;;;4976367;28;20042;-82
2023/09/18 07:16:16;;;;;;;4.70;1.90;;;21.10;99.90;;;;;;4973141;28;20027;-81
2023/09/18 07:18:42;;;;;;;8.75;2.38;;;21.10;99.90;;;;;;4977386;28;20122;-82
2023/09/18 07:21:07;;;;;;;6.75;2.40;;;21.10;99.90;;;;;;4973789;28;20041;-81
2023/09/18 07:23:36;;;;;;;4.85;2.47;;;21.20;99.90;;;;;;4970548;28;20057;-81
2023/09/18 07:26:02;;;;;;;8.35;2.50;;;21.10;99.90;;;;;;4973699;28;20495;-81
2023/09/18 07:28:28;;;;;;;6.40;2.30;;;21.30;99.90;;;;;;4970028;28;20038;-82
2023/09/18 07:30:54;;;;;;;7.85;2.15;;;21.30;99.90;;;;;;4976057;28;20033;-82
2023/09/18 07:33:20;;;;;;;7.30;2.25;;;21.50;99.90;;;;;;4977345;28;20027;-82
2023/09/18 07:35:51;;;;;;;6.25;2.55;;;21.50;99.90;;;;;;4972756;28;20118;-82
2023/09/18 07:38:18;;;;;;;5.63;2.05;;;21.60;99.90;;;;;;4976928;28;20033;-82
2023/09/18 07:40:45;;;;;;;8.98;2.20;;;21.70;99.90;;;;;;4962049;28;20038;-82
2023/09/18 07:43:11;;;;;;;6.95;1.80;;;21.80;99.90;;;;;;4968267;28;20036;-82
2023/09/18 07:45:39;;;;;;;4.50;2.05;;;21.80;99.90;;;;;;4965941;28;20050;-82
2023/09/18 07:48:06;;;;;;;5.13;2.47;;;21.80;99.90;;;;;;4964854;28;20039;-82
2023/09/18 07:50:33;;;;;;;7.70;2.30;;;22.00;99.90;;;;;;4973172;28;20118;-82
2023/09/18 07:53:02;;;;;;;7.22;1.98;;;22.00;99.90;;;;;;4948133;28;20045;-83
2023/09/18 07:55:29;;;;;;;7.07;1.67;;;22.00;99.90;;;;;;4954442;28;20035;-82
2023/09/18 07:57:54;;;;;;;4.38;1.80;;;22.20;99.90;;;;;;4979631;28;20027;-83
2023/09/18 08:00:22;;;;;;;5.00;1.85;;;22.20;99.90;;;;;;4981975;28;20041;-83
2023/09/18 08:02:54;;;;;;;6.13;1.90;;;22.20;99.90;;;;;;4982769;28;20042;-83
2023/09/18 08:05:22;;;;;;;7.50;1.83;;;22.10;99.90;;;;;;4983577;28;20589;-82
2023/09/18 08:07:51;;;;;;;6.75;2.20;;;22.30;99.90;;;;;;4995339;28;20026;-82
2023/09/18 08:10:17;;;;;;;5.63;2.33;;;22.30;99.90;;;;;;4988992;28;20038;-83
2023/09/18 08:12:48;;;;;;;4.43;2.10;;;22.30;99.90;;;;;;4942267;28;20023;-82
2023/09/18 08:15:16;;;;;;;8.18;2.10;;;22.30;99.90;;;;;;4964899;28;20047;-83
2023/09/18 08:17:43;;;;;;;4.40;1.90;;;22.30;99.90;;;;;;4982485;28;20363;-83
2023/09/18 08:20:14;;;;;;;6.75;1.92;;;22.30;99.90;;;;;;4958685;28;20034;-84
2023/09/18 08:22:40;;;;;;;4.20;1.00;;;22.40;99.90;;;;;;4989239;28;20026;-83
2023/09/18 08:25:18;;;;;;;7.53;1.80;;;22.30;99.90;;;;;;4988236;28;20030;-84
2023/09/18 08:27:44;;;;;;;8.98;1.80;;;22.30;99.90;;;;;;4985932;28;20034;-83
2023/09/18 08:30:15;;;;;;;4.05;1.67;;;22.40;99.90;;;;;;4970921;28;20026;-83
2023/09/18 08:32:42;;;;;;;5.13;1.65;;;22.50;99.90;;;;;;4984676;28;20069;-83
2023/09/18 08:35:10;;;;;;;3.70;1.73;;;22.60;99.90;;;;;;4988413;28;20046;-82
2023/09/18 08:37:40;;;;;;;4.72;1.17;;;22.40;99.90;;;;;;4986119;28;20083;-83
2023/09/18 08:40:13;;;;;;;2.45;1.50;;;22.30;99.90;;;;;;4971703;28;20038;-82
2023/09/18 08:42:46;;;;;;;5.20;1.38;;;22.40;99.90;;;;;;4975290;28;20050;-83
2023/09/18 08:45:25;;;;;;;3.80;1.83;;;22.30;99.90;;;;;;4954611;28;20115;-83
2023/09/18 08:47:51;;;;;;;4.10;1.33;;;22.50;99.90;;;;;;4962110;28;20031;-82
2023/09/18 08:50:17;;;;;;;2.20;1.23;;;22.50;99.90;;;;;;4980463;28;20045;-83
2023/09/18 08:52:50;;;;;;;3.53;1.25;;;22.60;99.90;;;;;;4966335;28;20034;-83
2023/09/18 08:55:16;;;;;;;4.07;1.40;;;22.70;99.90;;;;;;4957601;28;20026;-83
2023/09/18 08:57:48;;;;;;;4.15;1.27;;;22.60;99.90;;;;;;4985698;28;20047;-83
2023/09/18 09:00:17;;;;;;;4.70;1.50;;;22.80;99.90;;;;;;4988280;28;20030;-82
2023/09/18 09:02:50;;;;;;;2.83;1.20;;;22.70;99.90;;;;;;4987870;28;20045;-83
2023/09/18 09:05:16;;;;;;;3.53;2.50;;;22.70;99.90;;;;;;4985634;28;20042;-83
2023/09/18 09:07:42;;;;;;;3.60;1.40;;;23.00;99.90;;;;;;4987141;28;20028;-83
2023/09/18 09:10:12;;;;;;;2.70;1.30;;;23.10;99.90;;;;;;4976724;28;20085;-83
2023/09/18 09:13:02;;;;;;;7.85;1.40;;;23.00;99.90;;;;;;4963657;28;20597;-83
2023/09/18 09:15:56;;;;;;;5.85;1.10;;;23.20;99.90;;;;;;4968595;28;20406;-82
2023/09/18 09:18:22;;;;;;;5.68;1.80;;;23.20;99.90;;;;;;4994747;28;20034;-83
2023/09/18 09:21:05;;;;;;;5.45;1.20;;;23.30;99.90;;;;;;4965562;28;20046;-83
2023/09/18 09:23:56;;;;;;;1.67;1.05;;;23.40;99.90;;;;;;4961288;28;20552;-82
2023/09/18 09:26:22;;;;;;;4.10;1.42;;;23.40;99.90;;;;;;4948765;28;20116;-83
2023/09/18 09:28:48;;;;;;;1.45;0.80;;;23.60;99.90;;;;;;4961465;28;20034;-80
2023/09/18 09:31:30;;;;;;;3.90;0.85;;;23.50;99.50;;;;;;4975003;28;20571;-81
2023/09/18 09:33:56;;;;;;;2.05;0.80;;;23.50;99.40;;;;;;4937767;28;20051;-82
2023/09/18 09:36:22;;;;;;;4.45;2.03;;;23.60;99.00;;;;;;4973973;28;20041;-83
2023/09/18 09:38:48;;;;;;;3.58;1.08;;;23.60;99.10;;;;;;4966759;28;20430;-82
2023/09/18 09:41:14;;;;;;;3.50;1.20;;;23.60;98.80;;;;;;4978219;28;20049;-83
2023/09/18 09:43:41;;;;;;;7.13;1.17;;;23.60;98.70;;;;;;4982439;28;20046;-84
2023/09/18 09:46:10;;;;;;;2.33;0.95;;;23.60;98.70;;;;;;4962400;28;20058;-83
2023/09/18 09:48:36;;;;;;;3.22;1.13;;;23.50;98.40;;;;;;4961714;28;20065;-84
2023/09/18 09:51:01;;;;;;;2.45;0.80;;;23.50;98.40;;;;;;4970752;28;20065;-83
2023/09/18 09:53:47;;;;;;;5.18;1.20;;;23.70;98.50;;;;;;4965505;28;20050;-83
2023/09/18 09:56:13;;;;;;;;;;;23.80;98.00;;;;;;4956048;28;20026;-83
2023/09/18 09:58:43;;;;;;;2.45;0.98;;;23.90;98.10;;;;;;4990532;28;19913;-83
2023/09/18 10:01:15;;;;;;;1.15;0.70;;;23.80;97.90;;;;;;4959222;28;20126;-84
2023/09/18 10:03:43;;;;;;;6.15;1.25;;;23.90;97.60;;;;;;4990795;28;20414;-83
2023/09/18 10:06:17;;;;;;;1.92;1.27;;;24.00;97.50;;;;;;4960596;28;20038;-84
2023/09/18 10:08:42;;;;;;;0.65;0.52;;;23.80;97.90;;;;;;4961067;28;20466;-83
2023/09/18 10:11:11;;;;;;;2.50;1.23;;;24.10;98.30;;;;;;4974450;28;20051;-83
2023/09/18 10:13:48;;;;;;;4.55;1.65;;;24.50;97.80;;;;;;4973869;28;20049;-84
2023/09/18 10:16:18;;;;;;;3.08;1.50;;;24.40;97.20;;;;;;4957217;28;20078;-84
2023/09/18 10:19:14;;;;;;;6.63;1.33;;;24.30;97.40;;;;;;4960488;28;20027;-83
2023/09/18 10:22:05;;;;;;;2.88;1.30;;;24.70;97.80;;;;;;4957709;28;20059;-83
2023/09/18 10:24:37;;;;;;;2.33;1.13;;;24.70;96.90;;;;;;4992821;28;20435;-83
2023/09/18 10:27:04;;;;;;;1.55;1.10;;;25.00;98.10;;;;;;4976523;28;20510;-82
2023/09/18 10:29:30;;;;;;;3.65;1.00;;;24.90;96.30;;;;;;4973818;28;20035;-83
2023/09/18 10:31:56;;;;;;;5.68;1.05;;;24.90;96.60;;;;;;4937984;28;20046;-82
2023/09/18 10:34:25;;;;;;;1.85;0.88;;;24.80;96.20;;;;;;4977975;28;20490;-83
2023/09/18 10:36:53;;;;;;;2.33;1.20;;;24.80;96.10;;;;;;4960164;28;20089;-82
2023/09/18 10:39:25;;;;;;;4.68;1.20;;;25.00;96.10;;;;;;4977861;28;20054;-83
2023/09/18 10:41:53;;;;;;;1.50;1.00;;;25.20;96.20;;;;;;4978032;28;20023;-83
2023/09/18 10:44:18;;;;;;;5.15;1.00;;;25.40;96.60;;;;;;4956706;28;20743;-83
2023/09/18 10:46:48;;;;;;;3.22;0.90;;;25.60;95.70;;;;;;4957194;28;20130;-83
2023/09/18 10:49:17;;;;;;;3.47;1.25;;;25.70;95.20;;;;;;4954404;28;20046;-83
2023/09/18 10:51:43;;;;;;;6.72;1.40;;;25.70;95.00;;;;;;4968962;28;20418;-83
2023/09/18 10:54:15;;;;;;;0.93;0.90;;;25.70;94.80;;;;;;4986448;28;20117;-83
2023/09/18 10:56:44;;;;;;;1.30;0.98;;;25.90;94.20;;;;;;4974878;28;20407;-84
2023/09/18 10:59:09;;;;;;;3.30;1.02;;;25.90;94.60;;;;;;4968622;28;20057;-83
2023/09/18 11:01:36;;;;;;;3.80;1.25;;;26.10;94.50;;;;;;4972217;28;20080;-84
2023/09/18 11:04:10;;;;;;;2.78;1.02;;;26.30;94.40;;;;;;4972198;28;20026;-83
2023/09/18 11:06:53;;;;;;;2.83;1.05;;;26.50;93.90;;;;;;4972170;28;20530;-83
2023/09/18 11:09:23;;;;;;;1.85;1.17;;;26.40;93.90;;;;;;4970896;28;20451;-83
2023/09/18 11:11:56;;;;;;;2.17;0.90;;;26.50;93.60;;;;;;4283472;28;10000643;-84
2023/09/18 11:14:22;;;;;;;4.47;1.42;;;26.70;93.20;;;;;;4970140;28;20058;-83
2023/09/18 11:16:49;;;;;;;3.38;1.00;;;26.80;93.10;;;;;;4969690;28;20125;-82
2023/09/18 11:19:19;;;;;;;2.03;1.10;;;26.80;92.50;;;;;;4983722;28;20042;-82
2023/09/18 11:21:45;;;;;;;3.83;1.25;;;27.00;92.20;;;;;;4982364;28;20429;-83
2023/09/18 11:24:19;;;;;;;3.88;1.10;;;27.10;91.90;;;;;;4968243;28;20717;-83
2023/09/18 11:26:47;;;;;;;1.65;1.23;;;27.10;91.70;;;;;;4949237;28;20752;-83
2023/09/18 11:29:15;;;;;;;3.65;1.17;;;27.20;91.30;;;;;;4967270;28;20053;-83
2023/09/18 11:31:51;;;;;;;4.57;1.30;;;27.20;91.10;;;;;;4967451;28;20406;-82
2023/09/18 11:34:34;;;;;;;1.95;1.25;;;27.40;90.50;;;;;;4950293;28;20039;-83
2023/09/18 11:37:03;;;;;;;7.55;1.70;;;27.30;90.80;;;;;;4965548;28;20487;-81
2023/09/18 11:39:39;;;;;;;3.10;1.27;;;27.40;90.50;;;;;;4969559;28;20035;-83
2023/09/18 11:42:17;;;;;;;2.95;1.23;;;27.50;90.30;;;;;;4965542;28;20403;-81
2023/09/18 11:45:01;;;;;;;5.80;1.40;;;27.60;90.30;;;;;;4968959;28;20084;-82
2023/09/18 11:47:27;;;;;;;3.40;1.50;;;27.60;89.40;;;;;;4972099;28;20088;-81
2023/09/18 11:49:59;;;;;;;3.28;1.35;;;27.90;90.10;;;;;;4967611;28;20038;-81
2023/09/18 11:52:26;;;;;;;1.33;0.93;;;27.70;90.50;;;;;;4955265;28;20483;-80
2023/09/18 11:54:54;;;;;;;2.13;1.23;;;27.80;88.80;;;;;;4951799;28;20072;-82
2023/09/18 11:57:20;;;;;;;2.25;0.73;;;27.80;88.30;;;;;;4969876;28;20185;-82
2023/09/18 11:59:46;;;;;;;4.25;1.48;;;27.70;89.20;;;;;;4951169;28;20027;-80
2023/09/18 12:02:36;;;;;;;3.22;1.35;;;27.50;87.90;;;;;;4972720;28;20034;-79
2023/09/18 12:05:24;;;;;;;5.07;1.27;;;27.70;88.50;;;;;;4973642;28;20039;-80
2023/09/18 12:07:50;;;;;;;5.07;1.58;;;27.50;88.90;;;;;;4960884;28;20110;-80
2023/09/18 12:10:17;;;;;;;5.28;1.13;;;27.40;88.30;;;;;;4964315;28;20062;-79
2023/09/18 12:12:43;;;;;;;3.17;1.40;;;27.40;89.40;;;;;;4969019;28;20027;-80
2023/09/18 12:15:11;;;;;;;2.85;1.05;;;27.50;88.40;;;;;;4970560;28;20046;-79
2023/09/18 12:17:36;;;;;;;4.35;1.35;;;27.40;88.40;;;;;;4968972;28;20027;-78
2023/09/18 12:20:04;;;;;;;2.92;1.27;;;27.30;88.70;;;;;;4970241;28;20058;-77
2023/09/18 12:22:31;;;;;;;2.70;1.23;;;27.30;89.30;;;;;;4957507;28;20342;-81
2023/09/18 12:25:13;;;;;;;6.80;1.88;;;27.40;89.20;;;;;;4953538;28;20058;-79
2023/09/18 12:27:42;;;;;;;5.95;1.40;;;27.30;89.10;;;;;;4965152;28;20066;-80
2023/09/18 12:30:08;;;;;;;3.13;1.67;;;27.30;90.10;;;;;;4950743;28;20502;-80
2023/09/18 12:32:36;;;;;;;3.53;1.50;;;27.30;88.10;;;;;;4968590;28;20027;-80
2023/09/18 12:35:03;;;;;;;2.83;1.23;;;27.20;89.40;;;;;;4969897;28;20109;-80
2023/09/18 12:37:28;;;;;;;2.30;1.05;;;27.30;88.20;;;;;;4951917;28;20043;-80
2023/09/18 12:39:54;;;;;;;2.42;1.25;;;27.70;87.10;;;;;;4953688;28;20027;-80
2023/09/18 12:42:19;;;;;;;4.22;1.60;;;27.80;85.90;;;;;;4969406;28;20479;-80
2023/09/18 12:44:49;;;;;;;4.47;1.65;;;27.80;85.70;;;;;;4971089;28;20033;-79
2023/09/18 12:47:14;;;;;;;3.22;1.00;;;27.60;84.80;;;;;;4969802;28;20042;-80
2023/09/18 12:49:40;;;;;;;2.17;0.93;;;27.70;85.60;;;;;;4971714;28;20526;-81